sensor_id;sensor_type;location;lat;lon;timestamp;P1;durP1;ratioP1;P2;durP2;ratioP2
73859;SDS011;62197;51.632;13.700;2023-06-22T00:01:14;10.15;;;6.88;;
73859;SDS011;62197;51.632;13.700;2023-06-22T00:03:40;10.82;;;7.00;;
73859;SDS011;62197;51.632;13.700;2023-06-22T00:06:05;10.45;;;7.20;;
73859;SDS011;62197;51.632;13.700;2023-06-22T00:08:30;9.18;;;6.68;;
73859;SDS011;62197;51.632;13.700;2023-06-22T00:10:56;10.07;;;6.45;;
73859;SDS011;62197;51.632;13.700;2023-06-22T00:13:21;8.73;;;6.35;;
73859;SDS011;62197;51.632;13.700;2023-06-22T00:15:46;9.80;;;7.30;;
73859;SDS011;62197;51.632;13.700;2023-06-22T00:18:12;8.55;;;7.07;;
73859;SDS011;62197;51.632;13.700;2023-06-22T00:20:38;10.20;;;7.30;;
73859;SDS011;62197;51.632;13.700;2023-06-22T00:23:05;11.60;;;7.63;;
73859;SDS011;62197;51.632;13.700;2023-06-22T00:25:34;10.38;;;6.90;;
73859;SDS011;62197;51.632;13.700;2023-06-22T00:28:00;12.07;;;8.05;;
73859;SDS011;62197;51.632;13.700;2023-06-22T00:30:26;9.95;;;7.43;;
73859;SDS011;62197;51.632;13.700;2023-06-22T00:32:51;9.00;;;7.47;;
73859;SDS011;62197;51.632;13.700;2023-06-22T00:35:16;10.13;;;7.63;;
73859;SDS011;62197;51.632;13.700;2023-06-22T00:37:42;11.18;;;8.18;;
73859;SDS011;62197;51.632;13.700;2023-06-22T00:40:08;10.40;;;7.97;;
73859;SDS011;62197;51.632;13.700;2023-06-22T00:42:36;11.50;;;8.10;;
73859;SDS011;62197;51.632;13.700;2023-06-22T00:45:01;9.30;;;7.15;;
73859;SDS011;62197;51.632;13.700;2023-06-22T00:47:27;9.43;;;7.70;;
73859;SDS011;62197;51.632;13.700;2023-06-22T00:49:52;11.70;;;8.07;;
73859;SDS011;62197;51.632;13.700;2023-06-22T00:52:19;8.98;;;7.50;;
73859;SDS011;62197;51.632;13.700;2023-06-22T00:54:50;11.68;;;8.52;;
73859;SDS011;62197;51.632;13.700;2023-06-22T00:57:17;11.55;;;8.80;;
73859;SDS011;62197;51.632;13.700;2023-06-22T00:59:43;9.80;;;7.82;;
73859;SDS011;62197;51.632;13.700;2023-06-22T01:02:09;12.23;;;8.23;;
73859;SDS011;62197;51.632;13.700;2023-06-22T01:04:35;11.27;;;8.30;;
73859;SDS011;62197;51.632;13.700;2023-06-22T01:07:15;9.68;;;7.75;;
73859;SDS011;62197;51.632;13.700;2023-06-22T01:12:52;10.95;;;8.35;;
73859;SDS011;62197;51.632;13.700;2023-06-22T01:15:33;12.13;;;8.77;;
73859;SDS011;62197;51.632;13.700;2023-06-22T01:18:04;12.90;;;8.93;;
73859;SDS011;62197;51.632;13.700;2023-06-22T01:20:31;11.68;;;9.57;;
73859;SDS011;62197;51.632;13.700;2023-06-22T01:23:07;11.77;;;8.63;;
73859;SDS011;62197;51.632;13.700;2023-06-22T01:25:47;11.45;;;8.45;;
73859;SDS011;62197;51.632;13.700;2023-06-22T01:31:02;10.55;;;8.73;;
73859;SDS011;62197;51.632;13.700;2023-06-22T01:33:34;13.05;;;9.82;;
73859;SDS011;62197;51.632;13.700;2023-06-22T01:36:02;12.32;;;9.82;;
73859;SDS011;62197;51.632;13.700;2023-06-22T01:38:28;11.45;;;9.25;;
73859;SDS011;62197;51.632;13.700;2023-06-22T01:40:54;14.18;;;9.63;;
73859;SDS011;62197;51.632;13.700;2023-06-22T01:43:21;13.18;;;9.75;;
73859;SDS011;62197;51.632;13.700;2023-06-22T01:45:49;14.13;;;10.20;;
73859;SDS011;62197;51.632;13.700;2023-06-22T01:48:16;13.48;;;11.00;;
73859;SDS011;62197;51.632;13.700;2023-06-22T01:50:42;14.75;;;10.50;;
73859;SDS011;62197;51.632;13.700;2023-06-22T01:53:08;14.98;;;11.57;;
73859;SDS011;62197;51.632;13.700;2023-06-22T01:55:33;14.00;;;11.30;;
73859;SDS011;62197;51.632;13.700;2023-06-22T01:57:58;16.30;;;11.52;;
73859;SDS011;62197;51.632;13.700;2023-06-22T02:00:24;12.48;;;10.18;;
73859;SDS011;62197;51.632;13.700;2023-06-22T02:05:43;15.18;;;12.25;;
73859;SDS011;62197;51.632;13.700;2023-06-22T02:08:19;17.42;;;12.50;;
73859;SDS011;62197;51.632;13.700;2023-06-22T02:10:46;17.77;;;12.68;;
73859;SDS011;62197;51.632;13.700;2023-06-22T02:13:14;14.77;;;10.95;;
73859;SDS011;62197;51.632;13.700;2023-06-22T02:15:40;16.15;;;11.73;;
73859;SDS011;62197;51.632;13.700;2023-06-22T02:18:05;14.95;;;12.18;;
73859;SDS011;62197;51.632;13.700;2023-06-22T02:20:31;14.43;;;11.30;;
73859;SDS011;62197;51.632;13.700;2023-06-22T02:22:56;15.73;;;11.73;;
73859;SDS011;62197;51.632;13.700;2023-06-22T02:25:21;16.02;;;12.07;;
73859;SDS011;62197;51.632;13.700;2023-06-22T02:27:47;16.83;;;13.65;;
73859;SDS011;62197;51.632;13.700;2023-06-22T02:30:12;15.98;;;11.93;;
73859;SDS011;62197;51.632;13.700;2023-06-22T02:32:40;16.15;;;11.88;;
73859;SDS011;62197;51.632;13.700;2023-06-22T02:35:06;16.38;;;12.02;;
73859;SDS011;62197;51.632;13.700;2023-06-22T02:37:33;15.10;;;11.48;;
73859;SDS011;62197;51.632;13.700;2023-06-22T02:40:00;14.52;;;11.00;;
73859;SDS011;62197;51.632;13.700;2023-06-22T02:42:26;14.07;;;11.05;;
73859;SDS011;62197;51.632;13.700;2023-06-22T02:44:51;14.38;;;10.80;;
73859;SDS011;62197;51.632;13.700;2023-06-22T02:47:17;13.85;;;11.60;;
73859;SDS011;62197;51.632;13.700;2023-06-22T02:49:42;14.90;;;11.10;;
73859;SDS011;62197;51.632;13.700;2023-06-22T02:52:09;14.70;;;11.77;;
73859;SDS011;62197;51.632;13.700;2023-06-22T02:54:35;14.30;;;11.63;;
73859;SDS011;62197;51.632;13.700;2023-06-22T02:57:00;14.52;;;12.55;;
73859;SDS011;62197;51.632;13.700;2023-06-22T02:59:27;15.68;;;11.48;;
73859;SDS011;62197;51.632;13.700;2023-06-22T03:01:53;15.95;;;11.50;;
73859;SDS011;62197;51.632;13.700;2023-06-22T03:04:18;15.57;;;12.15;;
73859;SDS011;62197;51.632;13.700;2023-06-22T03:06:44;15.63;;;12.70;;
73859;SDS011;62197;51.632;13.700;2023-06-22T03:09:09;15.50;;;11.75;;
73859;SDS011;62197;51.632;13.700;2023-06-22T03:11:35;16.33;;;12.07;;
73859;SDS011;62197;51.632;13.700;2023-06-22T03:14:01;14.85;;;11.45;;
73859;SDS011;62197;51.632;13.700;2023-06-22T03:16:27;15.30;;;11.55;;
73859;SDS011;62197;51.632;13.700;2023-06-22T03:18:52;14.75;;;11.95;;
73859;SDS011;62197;51.632;13.700;2023-06-22T03:21:18;18.48;;;11.63;;
73859;SDS011;62197;51.632;13.700;2023-06-22T03:23:44;14.77;;;12.70;;
73859;SDS011;62197;51.632;13.700;2023-06-22T03:26:10;18.50;;;13.32;;
73859;SDS011;62197;51.632;13.700;2023-06-22T03:28:38;14.55;;;11.32;;
73859;SDS011;62197;51.632;13.700;2023-06-22T03:31:04;14.98;;;10.85;;
73859;SDS011;62197;51.632;13.700;2023-06-22T03:33:31;17.30;;;11.93;;
73859;SDS011;62197;51.632;13.700;2023-06-22T03:35:56;17.80;;;12.82;;
73859;SDS011;62197;51.632;13.700;2023-06-22T03:38:22;14.38;;;12.15;;
73859;SDS011;62197;51.632;13.700;2023-06-22T03:40:47;14.48;;;11.80;;
73859;SDS011;62197;51.632;13.700;2023-06-22T03:43:12;17.98;;;13.45;;
73859;SDS011;62197;51.632;13.700;2023-06-22T03:45:38;16.17;;;12.60;;
73859;SDS011;62197;51.632;13.700;2023-06-22T03:48:05;17.85;;;12.85;;
73859;SDS011;62197;51.632;13.700;2023-06-22T03:50:30;17.20;;;12.73;;
73859;SDS011;62197;51.632;13.700;2023-06-22T03:52:59;17.63;;;13.15;;
73859;SDS011;62197;51.632;13.700;2023-06-22T03:55:24;14.90;;;12.68;;
73859;SDS011;62197;51.632;13.700;2023-06-22T03:57:49;16.50;;;12.20;;
73859;SDS011;62197;51.632;13.700;2023-06-22T04:00:15;19.73;;;14.25;;
73859;SDS011;62197;51.632;13.700;2023-06-22T04:02:43;21.05;;;14.30;;
73859;SDS011;62197;51.632;13.700;2023-06-22T04:05:09;17.70;;;15.05;;
73859;SDS011;62197;51.632;13.700;2023-06-22T04:07:35;20.33;;;14.75;;
73859;SDS011;62197;51.632;13.700;2023-06-22T04:10:02;15.43;;;12.30;;
73859;SDS011;62197;51.632;13.700;2023-06-22T04:12:28;17.85;;;13.38;;
73859;SDS011;62197;51.632;13.700;2023-06-22T04:14:54;18.67;;;14.02;;
73859;SDS011;62197;51.632;13.700;2023-06-22T04:17:19;21.08;;;14.43;;
73859;SDS011;62197;51.632;13.700;2023-06-22T04:19:44;19.80;;;13.68;;
73859;SDS011;62197;51.632;13.700;2023-06-22T04:22:10;18.73;;;14.40;;
73859;SDS011;62197;51.632;13.700;2023-06-22T04:24:35;20.17;;;14.25;;
73859;SDS011;62197;51.632;13.700;2023-06-22T04:27:00;22.42;;;14.65;;
73859;SDS011;62197;51.632;13.700;2023-06-22T04:29:27;21.20;;;14.48;;
73859;SDS011;62197;51.632;13.700;2023-06-22T04:31:55;18.33;;;14.23;;
73859;SDS011;62197;51.632;13.700;2023-06-22T04:34:23;17.15;;;14.05;;
73859;SDS011;62197;51.632;13.700;2023-06-22T04:36:51;18.60;;;14.23;;
73859;SDS011;62197;51.632;13.700;2023-06-22T04:39:16;18.63;;;13.57;;
73859;SDS011;62197;51.632;13.700;2023-06-22T04:41:43;17.58;;;14.07;;
73859;SDS011;62197;51.632;13.700;2023-06-22T04:46:35;15.90;;;12.38;;
73859;SDS011;62197;51.632;13.700;2023-06-22T04:49:04;18.80;;;14.15;;
73859;SDS011;62197;51.632;13.700;2023-06-22T04:51:31;17.63;;;13.27;;
73859;SDS011;62197;51.632;13.700;2023-06-22T04:53:57;17.67;;;13.50;;
73859;SDS011;62197;51.632;13.700;2023-06-22T04:56:25;17.55;;;13.52;;
73859;SDS011;62197;51.632;13.700;2023-06-22T04:58:52;17.33;;;13.75;;
73859;SDS011;62197;51.632;13.700;2023-06-22T05:01:21;17.50;;;13.20;;
73859;SDS011;62197;51.632;13.700;2023-06-22T05:03:47;16.02;;;13.55;;
73859;SDS011;62197;51.632;13.700;2023-06-22T05:06:13;17.02;;;12.82;;
73859;SDS011;62197;51.632;13.700;2023-06-22T05:08:39;19.02;;;13.32;;
73859;SDS011;62197;51.632;13.700;2023-06-22T05:11:04;19.17;;;12.57;;
73859;SDS011;62197;51.632;13.700;2023-06-22T05:13:30;15.48;;;11.98;;
73859;SDS011;62197;51.632;13.700;2023-06-22T05:15:55;16.60;;;13.23;;
73859;SDS011;62197;51.632;13.700;2023-06-22T05:18:26;16.08;;;12.70;;
73859;SDS011;62197;51.632;13.700;2023-06-22T05:20:52;14.93;;;11.77;;
73859;SDS011;62197;51.632;13.700;2023-06-22T05:23:18;16.60;;;12.80;;
73859;SDS011;62197;51.632;13.700;2023-06-22T05:25:44;16.80;;;13.02;;
73859;SDS011;62197;51.632;13.700;2023-06-22T05:28:09;15.52;;;12.68;;
73859;SDS011;62197;51.632;13.700;2023-06-22T05:30:36;14.88;;;12.57;;
73859;SDS011;62197;51.632;13.700;2023-06-22T05:33:01;14.10;;;11.48;;
73859;SDS011;62197;51.632;13.700;2023-06-22T05:35:27;15.13;;;12.18;;
73859;SDS011;62197;51.632;13.700;2023-06-22T05:37:54;13.68;;;11.73;;
73859;SDS011;62197;51.632;13.700;2023-06-22T05:40:20;18.80;;;13.00;;
73859;SDS011;62197;51.632;13.700;2023-06-22T05:42:45;14.23;;;11.15;;
73859;SDS011;62197;51.632;13.700;2023-06-22T05:45:11;15.55;;;12.68;;
73859;SDS011;62197;51.632;13.700;2023-06-22T05:47:36;17.42;;;13.23;;
73859;SDS011;62197;51.632;13.700;2023-06-22T05:50:02;16.50;;;13.02;;
73859;SDS011;62197;51.632;13.700;2023-06-22T05:52:31;16.20;;;12.73;;
73859;SDS011;62197;51.632;13.700;2023-06-22T05:54:57;15.13;;;12.20;;
73859;SDS011;62197;51.632;13.700;2023-06-22T05:57:22;16.20;;;12.90;;
73859;SDS011;62197;51.632;13.700;2023-06-22T05:59:48;14.48;;;11.75;;
73859;SDS011;62197;51.632;13.700;2023-06-22T06:02:13;16.17;;;12.52;;
73859;SDS011;62197;51.632;13.700;2023-06-22T06:04:39;15.93;;;12.55;;
73859;SDS011;62197;51.632;13.700;2023-06-22T06:07:04;16.48;;;13.00;;
73859;SDS011;62197;51.632;13.700;2023-06-22T06:09:30;16.33;;;12.77;;
73859;SDS011;62197;51.632;13.700;2023-06-22T06:11:55;17.95;;;12.10;;
73859;SDS011;62197;51.632;13.700;2023-06-22T06:14:21;13.88;;;11.93;;
73859;SDS011;62197;51.632;13.700;2023-06-22T06:16:47;15.30;;;11.57;;
73859;SDS011;62197;51.632;13.700;2023-06-22T06:19:13;13.88;;;12.07;;
73859;SDS011;62197;51.632;13.700;2023-06-22T06:21:39;14.10;;;12.10;;
73859;SDS011;62197;51.632;13.700;2023-06-22T06:24:04;12.05;;;10.52;;
73859;SDS011;62197;51.632;13.700;2023-06-22T06:26:29;12.50;;;9.52;;
73859;SDS011;62197;51.632;13.700;2023-06-22T06:28:57;10.75;;;8.63;;
73859;SDS011;62197;51.632;13.700;2023-06-22T06:31:23;10.18;;;8.75;;
73859;SDS011;62197;51.632;13.700;2023-06-22T06:33:49;14.00;;;9.80;;
73859;SDS011;62197;51.632;13.700;2023-06-22T06:36:14;10.80;;;8.32;;
73859;SDS011;62197;51.632;13.700;2023-06-22T06:38:41;10.77;;;8.25;;
73859;SDS011;62197;51.632;13.700;2023-06-22T06:41:06;10.60;;;8.27;;
73859;SDS011;62197;51.632;13.700;2023-06-22T06:43:32;9.45;;;8.30;;
73859;SDS011;62197;51.632;13.700;2023-06-22T06:45:57;9.07;;;7.55;;
73859;SDS011;62197;51.632;13.700;2023-06-22T06:48:22;8.30;;;7.45;;
73859;SDS011;62197;51.632;13.700;2023-06-22T06:50:48;8.70;;;7.20;;
73859;SDS011;62197;51.632;13.700;2023-06-22T06:53:13;8.63;;;7.60;;
73859;SDS011;62197;51.632;13.700;2023-06-22T06:55:39;11.35;;;7.78;;
73859;SDS011;62197;51.632;13.700;2023-06-22T06:58:04;9.93;;;8.05;;
73859;SDS011;62197;51.632;13.700;2023-06-22T07:00:32;9.75;;;8.50;;
73859;SDS011;62197;51.632;13.700;2023-06-22T07:02:58;9.07;;;7.20;;
73859;SDS011;62197;51.632;13.700;2023-06-22T07:05:23;12.35;;;8.55;;
73859;SDS011;62197;51.632;13.700;2023-06-22T07:07:48;10.43;;;7.97;;
73859;SDS011;62197;51.632;13.700;2023-06-22T07:10:14;8.40;;;7.53;;
73859;SDS011;62197;51.632;13.700;2023-06-22T07:12:40;9.95;;;8.32;;
73859;SDS011;62197;51.632;13.700;2023-06-22T07:15:06;11.07;;;7.28;;
73859;SDS011;62197;51.632;13.700;2023-06-22T07:17:33;9.68;;;7.82;;
73859;SDS011;62197;51.632;13.700;2023-06-22T07:19:58;10.32;;;8.27;;
73859;SDS011;62197;51.632;13.700;2023-06-22T07:22:24;9.15;;;7.38;;
73859;SDS011;62197;51.632;13.700;2023-06-22T07:24:49;14.13;;;8.50;;
73859;SDS011;62197;51.632;13.700;2023-06-22T07:27:14;10.98;;;8.23;;
73859;SDS011;62197;51.632;13.700;2023-06-22T07:29:43;9.57;;;8.10;;
73859;SDS011;62197;51.632;13.700;2023-06-22T07:32:09;11.13;;;8.98;;
73859;SDS011;62197;51.632;13.700;2023-06-22T07:34:34;11.25;;;10.05;;
73859;SDS011;62197;51.632;13.700;2023-06-22T07:36:59;10.35;;;9.07;;
73859;SDS011;62197;51.632;13.700;2023-06-22T07:39:25;10.80;;;9.57;;
73859;SDS011;62197;51.632;13.700;2023-06-22T07:41:51;13.75;;;8.93;;
73859;SDS011;62197;51.632;13.700;2023-06-22T07:44:17;12.40;;;9.32;;
73859;SDS011;62197;51.632;13.700;2023-06-22T07:46:42;11.05;;;9.88;;
73859;SDS011;62197;51.632;13.700;2023-06-22T07:49:07;10.57;;;8.63;;
73859;SDS011;62197;51.632;13.700;2023-06-22T07:51:33;10.55;;;8.93;;
73859;SDS011;62197;51.632;13.700;2023-06-22T07:53:59;11.30;;;8.90;;
73859;SDS011;62197;51.632;13.700;2023-06-22T07:56:24;10.13;;;8.13;;
73859;SDS011;62197;51.632;13.700;2023-06-22T07:58:50;10.55;;;8.68;;
73859;SDS011;62197;51.632;13.700;2023-06-22T08:01:15;12.93;;;9.70;;
73859;SDS011;62197;51.632;13.700;2023-06-22T08:03:41;12.10;;;9.00;;
73859;SDS011;62197;51.632;13.700;2023-06-22T08:06:07;12.15;;;8.82;;
73859;SDS011;62197;51.632;13.700;2023-06-22T08:08:34;12.25;;;9.63;;
73859;SDS011;62197;51.632;13.700;2023-06-22T08:10:59;11.13;;;9.07;;
73859;SDS011;62197;51.632;13.700;2023-06-22T08:13:25;11.75;;;9.13;;
73859;SDS011;62197;51.632;13.700;2023-06-22T08:15:50;12.15;;;9.02;;
73859;SDS011;62197;51.632;13.700;2023-06-22T08:18:15;11.32;;;8.77;;
73859;SDS011;62197;51.632;13.700;2023-06-22T08:20:41;10.60;;;9.35;;
73859;SDS011;62197;51.632;13.700;2023-06-22T08:23:07;12.45;;;9.63;;
73859;SDS011;62197;51.632;13.700;2023-06-22T08:25:32;10.98;;;9.25;;
73859;SDS011;62197;51.632;13.700;2023-06-22T08:27:59;11.23;;;9.30;;
73859;SDS011;62197;51.632;13.700;2023-06-22T08:30:24;12.40;;;8.85;;
73859;SDS011;62197;51.632;13.700;2023-06-22T08:32:49;10.02;;;8.13;;
73859;SDS011;62197;51.632;13.700;2023-06-22T08:35:15;9.38;;;8.30;;
73859;SDS011;62197;51.632;13.700;2023-06-22T08:37:40;12.43;;;9.27;;
73859;SDS011;62197;51.632;13.700;2023-06-22T08:40:06;9.30;;;8.35;;
73859;SDS011;62197;51.632;13.700;2023-06-22T08:42:33;10.02;;;8.43;;
73859;SDS011;62197;51.632;13.700;2023-06-22T08:44:59;9.32;;;8.15;;
73859;SDS011;62197;51.632;13.700;2023-06-22T08:47:25;10.27;;;9.02;;
73859;SDS011;62197;51.632;13.700;2023-06-22T08:49:50;9.35;;;8.32;;
73859;SDS011;62197;51.632;13.700;2023-06-22T08:52:17;9.73;;;8.68;;
73859;SDS011;62197;51.632;13.700;2023-06-22T08:54:43;9.45;;;8.30;;
73859;SDS011;62197;51.632;13.700;2023-06-22T08:57:08;10.00;;;8.93;;
73859;SDS011;62197;51.632;13.700;2023-06-22T08:59:34;12.52;;;9.35;;
73859;SDS011;62197;51.632;13.700;2023-06-22T09:01:59;11.30;;;8.95;;
73859;SDS011;62197;51.632;13.700;2023-06-22T09:04:25;9.90;;;8.85;;
73859;SDS011;62197;51.632;13.700;2023-06-22T09:06:50;9.30;;;8.40;;
73859;SDS011;62197;51.632;13.700;2023-06-22T09:09:17;9.48;;;8.20;;
73859;SDS011;62197;51.632;13.700;2023-06-22T09:11:43;9.88;;;7.95;;
73859;SDS011;62197;51.632;13.700;2023-06-22T09:14:09;11.50;;;8.63;;
73859;SDS011;62197;51.632;13.700;2023-06-22T09:16:35;10.88;;;8.52;;
73859;SDS011;62197;51.632;13.700;2023-06-22T09:19:01;10.27;;;9.07;;
73859;SDS011;62197;51.632;13.700;2023-06-22T09:21:28;11.52;;;8.93;;
73859;SDS011;62197;51.632;13.700;2023-06-22T09:23:53;10.43;;;9.20;;
73859;SDS011;62197;51.632;13.700;2023-06-22T09:26:19;9.95;;;8.48;;
73859;SDS011;62197;51.632;13.700;2023-06-22T09:28:45;9.57;;;8.10;;
73859;SDS011;62197;51.632;13.700;2023-06-22T09:31:10;11.80;;;8.90;;
73859;SDS011;62197;51.632;13.700;2023-06-22T09:33:36;10.98;;;8.70;;
73859;SDS011;62197;51.632;13.700;2023-06-22T09:36:03;11.63;;;8.80;;
73859;SDS011;62197;51.632;13.700;2023-06-22T09:38:32;12.10;;;9.55;;
73859;SDS011;62197;51.632;13.700;2023-06-22T09:40:59;10.15;;;8.93;;
73859;SDS011;62197;51.632;13.700;2023-06-22T09:43:25;9.25;;;8.20;;
73859;SDS011;62197;51.632;13.700;2023-06-22T09:45:50;12.68;;;8.68;;
73859;SDS011;62197;51.632;13.700;2023-06-22T09:48:15;10.27;;;8.00;;
73859;SDS011;62197;51.632;13.700;2023-06-22T09:50:41;8.88;;;7.97;;
73859;SDS011;62197;51.632;13.700;2023-06-22T09:53:06;9.27;;;8.32;;
73859;SDS011;62197;51.632;13.700;2023-06-22T09:55:32;16.05;;;8.13;;
73859;SDS011;62197;51.632;13.700;2023-06-22T09:57:57;10.07;;;7.78;;
73859;SDS011;62197;51.632;13.700;2023-06-22T10:00:22;11.30;;;8.23;;
73859;SDS011;62197;51.632;13.700;2023-06-22T10:02:48;7.82;;;6.93;;
73859;SDS011;62197;51.632;13.700;2023-06-22T10:05:13;11.43;;;7.70;;
73859;SDS011;62197;51.632;13.700;2023-06-22T10:07:39;11.32;;;9.02;;
73859;SDS011;62197;51.632;13.700;2023-06-22T10:10:07;9.70;;;7.93;;
73859;SDS011;62197;51.632;13.700;2023-06-22T10:12:33;9.82;;;7.63;;
73859;SDS011;62197;51.632;13.700;2023-06-22T10:14:59;9.73;;;7.90;;
73859;SDS011;62197;51.632;13.700;2023-06-22T10:17:24;8.32;;;7.50;;
73859;SDS011;62197;51.632;13.700;2023-06-22T10:19:49;8.82;;;7.75;;
73859;SDS011;62197;51.632;13.700;2023-06-22T10:22:15;9.80;;;8.10;;
73859;SDS011;62197;51.632;13.700;2023-06-22T10:24:40;13.80;;;8.07;;
73859;SDS011;62197;51.632;13.700;2023-06-22T10:27:09;12.73;;;8.68;;
73859;SDS011;62197;51.632;13.700;2023-06-22T10:29:35;11.18;;;7.63;;
73859;SDS011;62197;51.632;13.700;2023-06-22T10:32:01;9.60;;;7.78;;
73859;SDS011;62197;51.632;13.700;2023-06-22T10:34:26;8.15;;;7.32;;
73859;SDS011;62197;51.632;13.700;2023-06-22T10:36:51;8.35;;;7.43;;
73859;SDS011;62197;51.632;13.700;2023-06-22T10:39:17;8.35;;;6.72;;
73859;SDS011;62197;51.632;13.700;2023-06-22T10:41:42;10.50;;;7.43;;
73859;SDS011;62197;51.632;13.700;2023-06-22T10:44:08;11.75;;;7.75;;
73859;SDS011;62197;51.632;13.700;2023-06-22T10:46:33;8.07;;;7.18;;
73859;SDS011;62197;51.632;13.700;2023-06-22T10:48:58;9.18;;;7.60;;
73859;SDS011;62197;51.632;13.700;2023-06-22T10:51:24;13.23;;;7.93;;
73859;SDS011;62197;51.632;13.700;2023-06-22T10:53:50;9.52;;;7.20;;
73859;SDS011;62197;51.632;13.700;2023-06-22T10:56:16;8.50;;;7.38;;
73859;SDS011;62197;51.632;13.700;2023-06-22T10:58:41;8.65;;;7.53;;
73859;SDS011;62197;51.632;13.700;2023-06-22T11:01:06;9.57;;;7.15;;
73859;SDS011;62197;51.632;13.700;2023-06-22T11:03:32;9.43;;;6.82;;
73859;SDS011;62197;51.632;13.700;2023-06-22T11:05:57;9.20;;;7.68;;
73859;SDS011;62197;51.632;13.700;2023-06-22T11:08:22;8.52;;;6.70;;
73859;SDS011;62197;51.632;13.700;2023-06-22T11:10:48;10.57;;;6.70;;
73859;SDS011;62197;51.632;13.700;2023-06-22T11:13:13;7.20;;;6.50;;
73859;SDS011;62197;51.632;13.700;2023-06-22T11:15:39;8.80;;;6.97;;
73859;SDS011;62197;51.632;13.700;2023-06-22T11:18:05;15.73;;;7.32;;
73859;SDS011;62197;51.632;13.700;2023-06-22T11:20:31;7.25;;;6.55;;
73859;SDS011;62197;51.632;13.700;2023-06-22T11:22:59;9.90;;;6.82;;
73859;SDS011;62197;51.632;13.700;2023-06-22T11:25:25;8.65;;;6.85;;
73859;SDS011;62197;51.632;13.700;2023-06-22T11:27:50;7.90;;;7.13;;
73859;SDS011;62197;51.632;13.700;2023-06-22T11:30:16;9.80;;;7.60;;
73859;SDS011;62197;51.632;13.700;2023-06-22T11:32:41;8.27;;;6.80;;
73859;SDS011;62197;51.632;13.700;2023-06-22T11:35:07;8.30;;;7.25;;
73859;SDS011;62197;51.632;13.700;2023-06-22T11:37:32;8.82;;;7.05;;
73859;SDS011;62197;51.632;13.700;2023-06-22T11:39:58;10.95;;;7.03;;
73859;SDS011;62197;51.632;13.700;2023-06-22T11:42:23;8.70;;;7.00;;
73859;SDS011;62197;51.632;13.700;2023-06-22T11:44:49;8.80;;;7.75;;
73859;SDS011;62197;51.632;13.700;2023-06-22T11:47:14;9.93;;;7.13;;
73859;SDS011;62197;51.632;13.700;2023-06-22T11:49:40;8.32;;;7.18;;
73859;SDS011;62197;51.632;13.700;2023-06-22T11:52:06;9.13;;;6.88;;
73859;SDS011;62197;51.632;13.700;2023-06-22T11:54:31;7.57;;;6.88;;
73859;SDS011;62197;51.632;13.700;2023-06-22T11:56:57;7.05;;;6.32;;
73859;SDS011;62197;51.632;13.700;2023-06-22T11:59:22;7.88;;;6.60;;
73859;SDS011;62197;51.632;13.700;2023-06-22T12:01:47;8.07;;;6.78;;
73859;SDS011;62197;51.632;13.700;2023-06-22T12:04:15;7.72;;;6.97;;
73859;SDS011;62197;51.632;13.700;2023-06-22T12:06:41;7.97;;;7.05;;
73859;SDS011;62197;51.632;13.700;2023-06-22T12:09:07;9.82;;;7.00;;
73859;SDS011;62197;51.632;13.700;2023-06-22T12:11:33;9.68;;;7.25;;
73859;SDS011;62197;51.632;13.700;2023-06-22T12:13:58;8.90;;;7.10;;
73859;SDS011;62197;51.632;13.700;2023-06-22T12:16:26;9.70;;;6.72;;
73859;SDS011;62197;51.632;13.700;2023-06-22T12:18:52;7.32;;;6.63;;
73859;SDS011;62197;51.632;13.700;2023-06-22T12:21:18;11.05;;;7.35;;
73859;SDS011;62197;51.632;13.700;2023-06-22T12:23:44;7.93;;;6.80;;
73859;SDS011;62197;51.632;13.700;2023-06-22T12:26:09;7.25;;;6.53;;
73859;SDS011;62197;51.632;13.700;2023-06-22T12:28:34;7.93;;;6.70;;
73859;SDS011;62197;51.632;13.700;2023-06-22T12:31:00;7.90;;;6.90;;
73859;SDS011;62197;51.632;13.700;2023-06-22T12:33:25;8.40;;;6.50;;
73859;SDS011;62197;51.632;13.700;2023-06-22T12:35:50;8.02;;;6.28;;
73859;SDS011;62197;51.632;13.700;2023-06-22T12:38:16;9.30;;;6.65;;
73859;SDS011;62197;51.632;13.700;2023-06-22T12:40:41;8.07;;;6.75;;
73859;SDS011;62197;51.632;13.700;2023-06-22T12:43:06;7.47;;;6.70;;
73859;SDS011;62197;51.632;13.700;2023-06-22T12:45:32;7.82;;;6.55;;
73859;SDS011;62197;51.632;13.700;2023-06-22T12:47:58;9.18;;;7.70;;
73859;SDS011;62197;51.632;13.700;2023-06-22T12:50:24;8.55;;;7.07;;
73859;SDS011;62197;51.632;13.700;2023-06-22T12:52:50;7.93;;;6.63;;
73859;SDS011;62197;51.632;13.700;2023-06-22T12:55:15;9.38;;;6.60;;
73859;SDS011;62197;51.632;13.700;2023-06-22T12:57:40;7.50;;;6.65;;
73859;SDS011;62197;51.632;13.700;2023-06-22T13:00:06;8.23;;;6.30;;
73859;SDS011;62197;51.632;13.700;2023-06-22T13:02:33;7.35;;;6.32;;
73859;SDS011;62197;51.632;13.700;2023-06-22T13:04:59;8.32;;;6.65;;
73859;SDS011;62197;51.632;13.700;2023-06-22T13:07:24;8.32;;;6.80;;
73859;SDS011;62197;51.632;13.700;2023-06-22T13:09:50;8.40;;;6.93;;
73859;SDS011;62197;51.632;13.700;2023-06-22T13:12:19;6.85;;;6.15;;
73859;SDS011;62197;51.632;13.700;2023-06-22T13:14:48;7.88;;;6.82;;
73859;SDS011;62197;51.632;13.700;2023-06-22T13:17:13;8.65;;;5.93;;
73859;SDS011;62197;51.632;13.700;2023-06-22T13:19:39;9.13;;;6.20;;
73859;SDS011;62197;51.632;13.700;2023-06-22T13:22:04;9.32;;;6.68;;
73859;SDS011;62197;51.632;13.700;2023-06-22T13:24:30;6.93;;;6.07;;
73859;SDS011;62197;51.632;13.700;2023-06-22T13:26:55;7.45;;;6.53;;
73859;SDS011;62197;51.632;13.700;2023-06-22T13:29:21;6.85;;;5.85;;
73859;SDS011;62197;51.632;13.700;2023-06-22T13:31:46;6.75;;;6.13;;
73859;SDS011;62197;51.632;13.700;2023-06-22T13:34:11;7.68;;;6.03;;
73859;SDS011;62197;51.632;13.700;2023-06-22T13:36:37;7.82;;;6.25;;
73859;SDS011;62197;51.632;13.700;2023-06-22T13:39:02;7.80;;;6.55;;
73859;SDS011;62197;51.632;13.700;2023-06-22T13:41:28;7.32;;;6.70;;
73859;SDS011;62197;51.632;13.700;2023-06-22T13:43:54;7.07;;;6.38;;
73859;SDS011;62197;51.632;13.700;2023-06-22T13:46:19;9.40;;;6.13;;
73859;SDS011;62197;51.632;13.700;2023-06-22T13:48:44;10.07;;;6.35;;
73859;SDS011;62197;51.632;13.700;2023-06-22T13:51:10;8.80;;;6.68;;
73859;SDS011;62197;51.632;13.700;2023-06-22T13:53:35;7.63;;;6.07;;
73859;SDS011;62197;51.632;13.700;2023-06-22T13:56:00;7.22;;;6.50;;
73859;SDS011;62197;51.632;13.700;2023-06-22T13:58:26;7.72;;;6.93;;
73859;SDS011;62197;51.632;13.700;2023-06-22T14:00:51;8.23;;;7.00;;
73859;SDS011;62197;51.632;13.700;2023-06-22T14:03:16;8.70;;;6.95;;
73859;SDS011;62197;51.632;13.700;2023-06-22T14:05:42;8.00;;;6.68;;
73859;SDS011;62197;51.632;13.700;2023-06-22T14:08:08;8.82;;;7.00;;
73859;SDS011;62197;51.632;13.700;2023-06-22T14:10:34;8.35;;;6.75;;
73859;SDS011;62197;51.632;13.700;2023-06-22T14:12:59;7.78;;;6.97;;
73859;SDS011;62197;51.632;13.700;2023-06-22T14:15:25;6.88;;;6.18;;
73859;SDS011;62197;51.632;13.700;2023-06-22T14:17:50;9.95;;;7.18;;
73859;SDS011;62197;51.632;13.700;2023-06-22T14:20:15;8.98;;;6.25;;
73859;SDS011;62197;51.632;13.700;2023-06-22T14:22:41;7.95;;;6.70;;
73859;SDS011;62197;51.632;13.700;2023-06-22T14:25:07;7.70;;;5.90;;
73859;SDS011;62197;51.632;13.700;2023-06-22T14:27:32;7.07;;;6.18;;